createdAt,value
2023-02-24T00:00:47.317Z,3
2023-02-24T00:03:46.482Z,2.9
2023-02-24T00:06:46.433Z,2.8
2023-02-24T00:09:46.434Z,2.7
2023-02-24T00:12:46.496Z,2.7
2023-02-24T00:15:46.451Z,2.6
2023-02-24T00:18:46.424Z,2.6
2023-02-24T00:21:46.434Z,2.5
2023-02-24T00:24:46.468Z,2.4
2023-02-24T00:27:46.438Z,2.4
2023-02-24T00:30:46.491Z,2.4
2023-02-24T00:33:46.469Z,2.4
2023-02-24T00:36:46.442Z,2.4
2023-02-24T00:39:46.466Z,2.4
2023-02-24T00:42:46.449Z,2.5
2023-02-24T00:45:46.454Z,2.5
2023-02-24T00:48:46.454Z,2.5
2023-02-24T00:51:46.482Z,2.5
2023-02-24T00:54:46.490Z,2.5
2023-02-24T00:57:46.464Z,2.4
2023-02-24T01:00:46.462Z,2.4
2023-02-24T01:03:46.529Z,2.4
2023-02-24T01:06:46.462Z,2.4
2023-02-24T01:09:46.501Z,2.3
2023-02-24T01:12:46.467Z,2.3
2023-02-24T01:15:46.510Z,2.3
2023-02-24T01:18:46.473Z,2.2
2023-02-24T01:21:46.471Z,2.2
2023-02-24T01:24:46.498Z,2.2
2023-02-24T01:27:46.512Z,2.1
2023-02-24T01:30:46.479Z,2.1
2023-02-24T01:33:46.477Z,2.2
2023-02-24T01:36:46.477Z,2.2
2023-02-24T01:39:46.526Z,2.3
2023-02-24T01:42:46.488Z,2.3
2023-02-24T01:45:46.513Z,2.3
2023-02-24T01:48:46.491Z,2.3
2023-02-24T01:51:46.496Z,2.3
2023-02-24T01:54:46.509Z,2.3
2023-02-24T01:57:46.500Z,2.3
2023-02-24T02:00:46.498Z,2.4
2023-02-24T02:03:46.522Z,2.4
2023-02-24T02:06:46.502Z,2.4
2023-02-24T02:09:46.520Z,2.5
2023-02-24T02:12:46.610Z,2.5
2023-02-24T02:15:46.515Z,2.6
2023-02-24T02:18:46.501Z,2.5
2023-02-24T02:21:46.532Z,2.6
2023-02-24T02:24:46.524Z,2.6
2023-02-24T02:27:46.514Z,2.5
2023-02-24T02:30:46.513Z,2.6
2023-02-24T02:33:46.516Z,2.6
2023-02-24T02:36:46.520Z,2.6
2023-02-24T02:39:46.565Z,2.6
2023-02-24T02:42:46.522Z,2.6
2023-02-24T02:45:46.526Z,2.6
2023-02-24T02:48:46.515Z,2.6
2023-02-24T02:51:46.518Z,2.6
2023-02-24T02:54:46.526Z,2.6
2023-02-24T02:57:46.542Z,2.6
2023-02-24T03:00:46.544Z,2.6
2023-02-24T03:03:46.545Z,2.7
2023-02-24T03:06:46.532Z,2.7
2023-02-24T03:09:46.547Z,2.7
2023-02-24T03:12:46.537Z,2.7
2023-02-24T03:15:46.559Z,2.7
2023-02-24T03:18:46.562Z,2.7
2023-02-24T03:21:46.539Z,2.7
2023-02-24T03:24:46.609Z,2.7
2023-02-24T03:27:46.552Z,2.7
2023-02-24T03:30:46.653Z,2.7
2023-02-24T03:33:46.576Z,2.7
2023-02-24T03:36:46.550Z,2.7
2023-02-24T03:39:46.569Z,2.6
2023-02-24T03:42:46.561Z,2.7
2023-02-24T03:45:46.696Z,2.7
2023-02-24T03:48:46.565Z,2.6
2023-02-24T03:51:46.594Z,2.7
2023-02-24T03:54:46.572Z,2.7
2023-02-24T03:57:46.572Z,2.7
2023-02-24T04:00:46.579Z,2.6
2023-02-24T04:03:46.572Z,2.7
2023-02-24T04:06:46.572Z,2.7
2023-02-24T04:09:46.620Z,2.7
2023-02-24T04:12:46.645Z,2.7
2023-02-24T04:15:46.633Z,2.7
2023-02-24T04:18:46.591Z,2.7
2023-02-24T04:21:46.597Z,2.7
2023-02-24T04:24:46.612Z,2.7
2023-02-24T04:27:46.623Z,2.7
2023-02-24T04:30:46.719Z,2.7
2023-02-24T04:33:46.609Z,2.7
2023-02-24T04:36:46.604Z,2.7
2023-02-24T04:39:46.640Z,2.7
2023-02-24T04:42:46.724Z,2.7
2023-02-24T04:45:46.640Z,2.7
2023-02-24T04:48:46.645Z,2.7
2023-02-24T04:51:46.631Z,2.7
2023-02-24T04:54:46.632Z,2.7
2023-02-24T04:57:46.628Z,2.7
2023-02-24T05:00:46.626Z,2.7
2023-02-24T05:03:46.681Z,2.7
2023-02-24T05:06:46.642Z,2.7
2023-02-24T05:09:46.656Z,2.7
2023-02-24T05:12:46.646Z,2.7
2023-02-24T05:15:46.657Z,2.7
2023-02-24T05:18:46.660Z,2.8
2023-02-24T05:21:46.693Z,2.8
2023-02-24T05:24:46.696Z,2.8
2023-02-24T05:27:46.676Z,2.8
2023-02-24T05:30:46.705Z,2.8
2023-02-24T05:33:46.692Z,2.8
2023-02-24T05:36:46.680Z,2.8
2023-02-24T05:39:46.722Z,2.8
2023-02-24T05:42:46.690Z,2.8
2023-02-24T05:45:46.693Z,2.8
2023-02-24T05:48:46.689Z,2.8
2023-02-24T05:51:46.693Z,2.8
2023-02-24T05:54:46.707Z,2.9
2023-02-24T05:57:46.719Z,2.9
2023-02-24T06:00:46.700Z,2.8
2023-02-24T06:03:46.703Z,2.9
2023-02-24T06:06:46.702Z,2.9
2023-02-24T06:09:46.717Z,2.9
2023-02-24T06:12:46.717Z,2.9
2023-02-24T06:15:46.738Z,2.9
2023-02-24T06:18:46.747Z,2.9
2023-02-24T06:21:46.722Z,2.9
2023-02-24T06:24:46.742Z,3
2023-02-24T06:27:46.729Z,2.9
2023-02-24T06:30:46.808Z,3
2023-02-24T06:33:46.765Z,3
2023-02-24T06:36:46.773Z,3
2023-02-24T06:39:46.766Z,3
2023-02-24T06:42:46.756Z,3
2023-02-24T06:45:46.770Z,3
2023-02-24T06:48:46.767Z,3
2023-02-24T06:51:46.794Z,3
2023-02-24T06:54:46.784Z,3
2023-02-24T06:57:46.781Z,3
2023-02-24T07:00:46.855Z,3.1
2023-02-24T07:03:46.802Z,3.1
2023-02-24T07:06:46.794Z,3.2
2023-02-24T07:09:46.834Z,3.2
2023-02-24T07:12:46.810Z,3.2
2023-02-24T07:15:46.815Z,3.2
2023-02-24T07:18:46.814Z,3.2
2023-02-24T07:21:46.825Z,3.2
2023-02-24T07:24:46.835Z,3.2
2023-02-24T07:27:46.861Z,3.3
2023-02-24T07:30:46.959Z,3.3
2023-02-24T07:33:46.850Z,3.3
2023-02-24T07:36:46.846Z,3.3
2023-02-24T07:39:46.859Z,3.4
2023-02-24T07:42:46.858Z,3.4
2023-02-24T07:45:46.901Z,3.4
2023-02-24T07:48:46.862Z,3.4
2023-02-24T07:51:46.871Z,3.4
2023-02-24T07:54:46.890Z,3.4
2023-02-24T07:57:46.877Z,3.4
2023-02-24T08:00:46.894Z,3.4
2023-02-24T08:03:46.913Z,3.5
2023-02-24T08:06:48.141Z,3.5
2023-02-24T08:09:47.167Z,3.5
2023-02-24T08:12:46.904Z,3.5
2023-02-24T08:15:46.938Z,3.5
2023-02-24T08:18:47.066Z,3.5
2023-02-24T08:21:46.949Z,3.5
2023-02-24T08:24:46.944Z,3.6
2023-02-24T08:27:51.106Z,3.6
2023-02-24T08:30:47.412Z,3.5
2023-02-24T08:33:46.953Z,3.5
2023-02-24T08:36:46.954Z,3.5
2023-02-24T08:39:46.995Z,3.5
2023-02-24T08:42:46.963Z,3.5
2023-02-24T08:45:46.975Z,3.5
2023-02-24T08:48:46.980Z,3.5
2023-02-24T08:51:46.982Z,3.5
2023-02-24T08:54:47.005Z,3.6
2023-02-24T08:57:47.023Z,3.6
2023-02-24T09:00:47.032Z,3.6
2023-02-24T09:03:47.006Z,3.6
2023-02-24T09:06:47.019Z,3.7
2023-02-24T09:09:47.033Z,3.7
2023-02-24T09:12:47.028Z,3.7
2023-02-24T09:15:47.063Z,3.6
2023-02-24T09:18:47.041Z,3.6
2023-02-24T09:21:47.048Z,3.6
2023-02-24T09:24:47.065Z,3.5
2023-02-24T09:27:47.055Z,3.4
2023-02-24T09:30:47.074Z,3.2
2023-02-24T09:33:47.098Z,3.1
2023-02-24T09:36:47.073Z,3.1
2023-02-24T09:39:47.095Z,3
2023-02-24T09:42:47.103Z,2.9
2023-02-24T09:45:47.182Z,2.8
2023-02-24T09:48:47.105Z,2.7
2023-02-24T09:51:47.133Z,2.7
2023-02-24T09:54:47.123Z,2.7
2023-02-24T09:57:47.158Z,2.7
2023-02-24T10:00:47.198Z,2.6
2023-02-24T10:03:47.128Z,2.5
2023-02-24T10:06:47.138Z,2.4
2023-02-24T10:09:47.202Z,2.4
2023-02-24T10:12:47.153Z,2.3
2023-02-24T10:15:47.167Z,2.3
2023-02-24T10:18:47.165Z,2.3
2023-02-24T10:21:47.171Z,2.3
2023-02-24T10:24:47.228Z,2.3
2023-02-24T10:27:47.225Z,2.3
2023-02-24T10:30:47.414Z,2.3
2023-02-24T10:33:47.203Z,2.3
2023-02-24T10:36:47.212Z,2.4
2023-02-24T10:39:47.259Z,2.3
2023-02-24T10:42:47.235Z,2.3
2023-02-24T10:45:47.452Z,2.3
2023-02-24T10:48:47.239Z,2.3
2023-02-24T10:51:47.250Z,2.3
2023-02-24T10:54:47.267Z,2.2
2023-02-24T10:57:58.070Z,2.2
2023-02-24T11:00:47.277Z,2.2
2023-02-24T11:03:47.304Z,2.2
2023-02-24T11:06:47.291Z,2.3
2023-02-24T11:09:47.302Z,2.3
2023-02-24T11:12:47.312Z,2.3
2023-02-24T11:15:47.333Z,2.3
2023-02-24T11:18:47.316Z,2.3
2023-02-24T11:21:47.355Z,2.2
2023-02-24T11:24:47.360Z,2.1
2023-02-24T11:27:47.333Z,2.1
2023-02-24T11:30:47.531Z,2
2023-02-24T11:33:47.363Z,2
2023-02-24T11:36:47.352Z,2
2023-02-24T11:39:47.408Z,2.1
2023-02-24T11:42:47.362Z,2.1
2023-02-24T11:45:47.376Z,2.2
2023-02-24T11:48:47.375Z,2.2
2023-02-24T11:51:47.373Z,2.2
2023-02-24T11:54:47.392Z,2.2
2023-02-24T11:57:47.408Z,2.2
2023-02-24T12:00:48.087Z,2.3
2023-02-24T12:03:47.396Z,2.3
2023-02-24T12:06:47.399Z,2.3
2023-02-24T12:09:47.414Z,2.4
2023-02-24T12:12:47.412Z,2.4
2023-02-24T12:15:47.435Z,2.4
2023-02-24T12:18:47.414Z,2.4
2023-02-24T12:21:47.416Z,2.5
2023-02-24T12:24:47.434Z,2.4
2023-02-24T12:27:47.423Z,2.4
2023-02-24T12:30:47.464Z,2.5
2023-02-24T12:33:47.451Z,2.5
2023-02-24T12:36:47.427Z,2.5
2023-02-24T12:39:47.443Z,2.4
2023-02-24T12:42:47.432Z,2.4
2023-02-24T12:45:47.477Z,2.5
2023-02-24T12:48:47.455Z,2.5
2023-02-24T12:51:47.466Z,2.5
2023-02-24T12:54:47.454Z,2.5
2023-02-24T12:57:47.439Z,2.5
2023-02-24T13:00:47.493Z,2.5
2023-02-24T13:03:47.446Z,2.5
2023-02-24T13:06:47.445Z,2.5
2023-02-24T13:09:47.505Z,2.5
2023-02-24T13:12:47.453Z,2.6
2023-02-24T13:15:47.507Z,2.6
2023-02-24T13:18:47.458Z,2.6
2023-02-24T13:21:47.457Z,2.6
2023-02-24T13:24:47.481Z,2.6
2023-02-24T13:27:47.502Z,2.6
2023-02-24T13:30:47.551Z,2.6
2023-02-24T13:33:47.496Z,2.5
2023-02-24T13:36:47.525Z,2.5
2023-02-24T13:39:47.527Z,2.4
2023-02-24T13:42:47.527Z,2.4
2023-02-24T13:45:47.607Z,2.3
2023-02-24T13:48:47.548Z,2.3
2023-02-24T13:51:47.556Z,2.3
2023-02-24T13:54:47.580Z,2.3
2023-02-24T13:57:47.578Z,2.4
2023-02-24T14:00:47.606Z,2.4
2023-02-24T14:03:47.626Z,2.4
2023-02-24T14:06:47.612Z,2.4
2023-02-24T14:09:47.625Z,2.5
2023-02-24T14:12:47.642Z,2.5
2023-02-24T14:15:47.683Z,2.5
2023-02-24T14:18:47.648Z,2.5
2023-02-24T14:21:47.748Z,2.5
2023-02-24T14:24:47.676Z,2.5
2023-02-24T14:27:47.674Z,2.5
2023-02-24T14:30:47.753Z,2.5
2023-02-24T14:33:47.703Z,2.6
2023-02-24T14:36:47.717Z,2.6
2023-02-24T14:39:47.771Z,2.6
2023-02-24T14:42:47.744Z,2.6
2023-02-24T14:45:47.751Z,2.6
2023-02-24T14:48:47.754Z,2.6
2023-02-24T14:51:47.781Z,2.6
2023-02-24T14:54:47.801Z,2.6
2023-02-24T14:57:47.810Z,2.6
2023-02-24T15:00:47.798Z,2.6
2023-02-24T15:03:47.807Z,2.6
2023-02-24T15:06:47.826Z,2.6
2023-02-24T15:09:47.842Z,2.7
2023-02-24T15:12:47.852Z,2.6
2023-02-24T15:15:47.894Z,2.7
2023-02-24T15:18:47.874Z,2.6
2023-02-24T15:21:47.888Z,2.7
2023-02-24T15:24:47.914Z,2.7
2023-02-24T15:27:47.908Z,2.8
2023-02-24T15:30:47.959Z,2.8
2023-02-24T15:33:47.986Z,2.8
2023-02-24T15:36:47.945Z,2.8
2023-02-24T15:39:47.978Z,2.9
2023-02-24T15:42:47.967Z,2.8
2023-02-24T15:45:47.977Z,2.9
2023-02-24T15:48:47.982Z,2.9
2023-02-24T15:51:48.022Z,2.9
2023-02-24T15:54:48.039Z,2.9
2023-02-24T15:57:48.028Z,2.9
2023-02-24T16:00:48.064Z,3
2023-02-24T16:03:48.076Z,3
2023-02-24T16:06:48.046Z,3
2023-02-24T16:09:48.076Z,3
2023-02-24T16:12:48.049Z,3
2023-02-24T16:15:48.053Z,3
2023-02-24T16:18:48.058Z,3.1
2023-02-24T16:21:48.072Z,3
2023-02-24T16:24:48.087Z,3.1
2023-02-24T16:27:48.121Z,3.1
2023-02-24T16:30:48.171Z,3
2023-02-24T16:33:54.328Z,3.1
2023-02-24T16:36:48.094Z,3.1
2023-02-24T16:39:48.118Z,3.1
2023-02-24T16:42:48.113Z,3.1
2023-02-24T16:45:48.148Z,3.1
2023-02-24T16:48:48.120Z,3.1
2023-02-24T16:51:48.133Z,3.1
2023-02-24T16:54:48.138Z,3.1
2023-02-24T16:57:48.143Z,3.1
2023-02-24T17:00:48.158Z,3.2
2023-02-24T17:03:48.164Z,3.2
2023-02-24T17:06:48.172Z,3.2
2023-02-24T17:09:48.189Z,3.2
2023-02-24T17:12:48.164Z,3.3
2023-02-24T17:15:48.166Z,3.3
2023-02-24T17:18:48.185Z,3.3
2023-02-24T17:21:48.207Z,3.3
2023-02-24T17:24:48.195Z,3.3
2023-02-24T17:27:48.197Z,3.4
2023-02-24T17:30:48.389Z,3.4
2023-02-24T17:33:48.208Z,3.4
2023-02-24T17:36:48.207Z,3.4
2023-02-24T17:39:48.261Z,3.4
2023-02-24T17:42:48.213Z,3.4
2023-02-24T17:45:48.340Z,3.4
2023-02-24T17:48:48.221Z,3.4
2023-02-24T17:51:48.220Z,3.4
2023-02-24T17:54:48.243Z,3.5
2023-02-24T17:57:48.261Z,3.5
2023-02-24T18:00:48.235Z,3.5
2023-02-24T18:03:48.338Z,3.5
2023-02-24T18:06:48.244Z,3.5
2023-02-24T18:09:48.425Z,3.5
2023-02-24T18:12:48.250Z,3.5
2023-02-24T18:15:48.312Z,3.5
2023-02-24T18:18:48.261Z,3.5
2023-02-24T18:21:48.267Z,3.5
2023-02-24T18:24:48.276Z,3.5
2023-02-24T18:27:48.298Z,3.5
2023-02-24T18:30:48.359Z,3.5
2023-02-24T18:33:48.400Z,3.5
2023-02-24T18:36:48.292Z,3.5
2023-02-24T18:39:48.310Z,3.5
2023-02-24T18:42:48.295Z,3.5
2023-02-24T18:45:48.302Z,3.5
2023-02-24T18:48:48.361Z,3.6
2023-02-24T18:51:48.337Z,3.6
2023-02-24T18:54:48.327Z,3.6
2023-02-24T18:57:48.327Z,3.6
2023-02-24T19:00:48.328Z,3.6
2023-02-24T19:03:48.329Z,3.6
2023-02-24T19:06:48.342Z,3.7
2023-02-24T19:09:48.376Z,3.7
2023-02-24T19:12:48.343Z,3.7
2023-02-24T19:15:48.422Z,3.7
2023-02-24T19:18:48.346Z,3.7
2023-02-24T19:21:48.432Z,3.7
2023-02-24T19:24:48.363Z,3.7
2023-02-24T19:27:48.380Z,3.7
2023-02-24T19:30:48.377Z,3.8
2023-02-24T19:33:48.360Z,3.8
2023-02-24T19:36:48.368Z,3.8
2023-02-24T19:39:48.388Z,3.8
2023-02-24T19:42:48.383Z,3.8
2023-02-24T19:45:48.472Z,3.7
2023-02-24T19:48:48.398Z,3.6
2023-02-24T19:51:48.618Z,3.5
2023-02-24T19:54:48.424Z,3.5
2023-02-24T19:57:48.409Z,3.5
2023-02-24T20:00:48.572Z,3.5
2023-02-24T20:03:48.437Z,3.6
2023-02-24T20:06:48.420Z,3.6
2023-02-24T20:09:48.433Z,3.6
2023-02-24T20:12:48.433Z,3.6
2023-02-24T20:15:48.441Z,3.6
2023-02-24T20:18:48.442Z,3.6
2023-02-24T20:21:48.474Z,3.6
2023-02-24T20:24:48.456Z,3.6
2023-02-24T20:27:48.453Z,3.6
2023-02-24T20:30:48.497Z,3.6
2023-02-24T20:33:48.462Z,3.6
2023-02-24T20:36:48.464Z,3.6
2023-02-24T20:39:48.516Z,3.6
2023-02-24T20:42:48.477Z,3.6
2023-02-24T20:45:48.546Z,3.6
2023-02-24T20:48:48.496Z,3.6
2023-02-24T20:51:48.502Z,3.6
2023-02-24T20:54:48.511Z,3.6
2023-02-24T20:57:48.524Z,3.7
2023-02-24T21:00:48.504Z,3.7
2023-02-24T21:03:48.524Z,3.7
2023-02-24T21:06:48.535Z,3.7
2023-02-24T21:09:48.573Z,3.7
2023-02-24T21:12:48.515Z,3.7
2023-02-24T21:15:48.606Z,3.8
2023-02-24T21:18:48.539Z,3.8
2023-02-24T21:21:48.530Z,3.8
2023-02-24T21:24:48.547Z,3.8
2023-02-24T21:27:48.545Z,3.8
2023-02-24T21:30:48.601Z,3.8
2023-02-24T21:33:48.563Z,3.7
2023-02-24T21:36:48.540Z,3.8
2023-02-24T21:39:48.566Z,3.8
2023-02-24T21:42:48.552Z,3.7
2023-02-24T21:45:48.556Z,3.7
2023-02-24T21:48:48.563Z,3.7
2023-02-24T21:51:48.584Z,3.7
2023-02-24T21:54:48.594Z,3.7
2023-02-24T21:57:48.573Z,3.7
2023-02-24T22:00:48.572Z,3.7
2023-02-24T22:03:48.580Z,3.7
2023-02-24T22:06:48.620Z,3.7
2023-02-24T22:09:48.627Z,3.7
2023-02-24T22:12:48.626Z,3.7
2023-02-24T22:15:48.624Z,3.7
2023-02-24T22:18:48.610Z,3.7
2023-02-24T22:21:48.613Z,3.6
2023-02-24T22:24:48.625Z,3.6
2023-02-24T22:27:48.655Z,3.6
2023-02-24T22:30:48.669Z,3.6
2023-02-24T22:33:48.631Z,3.6
2023-02-24T22:36:48.686Z,3.6
2023-02-24T22:39:48.686Z,3.6
2023-02-24T22:42:48.653Z,3.6
2023-02-24T22:45:48.680Z,3.6
2023-02-24T22:48:48.665Z,3.6
2023-02-24T22:51:48.669Z,3.6
2023-02-24T22:54:48.677Z,3.6
2023-02-24T22:57:48.671Z,3.6
2023-02-24T23:00:48.780Z,3.7
2023-02-24T23:03:48.761Z,3.7
2023-02-24T23:06:48.682Z,3.7
2023-02-24T23:09:48.690Z,3.6
2023-02-24T23:12:48.687Z,3.7
2023-02-24T23:15:48.685Z,3.7
2023-02-24T23:18:48.719Z,3.6
2023-02-24T23:21:48.729Z,3.6
2023-02-24T23:24:48.713Z,3.6
2023-02-24T23:27:48.707Z,3.6
2023-02-24T23:30:48.773Z,3.5
2023-02-24T23:33:48.722Z,3.5
2023-02-24T23:36:48.735Z,3.5
2023-02-24T23:39:48.796Z,3.5
2023-02-24T23:42:48.741Z,3.5
2023-02-24T23:45:48.783Z,3.5
2023-02-24T23:48:48.749Z,3.5
2023-02-24T23:51:49.214Z,3.5
2023-02-24T23:54:48.773Z,3.5
2023-02-24T23:57:48.782Z,3.5
